createdAt,value
2022-09-12T00:01:50.374Z,51.78
2022-09-12T00:04:16.004Z,51.95
2022-09-12T00:06:41.543Z,51.88
2022-09-12T00:09:08.013Z,51.89
2022-09-12T00:11:35.950Z,51.68
2022-09-12T00:14:01.683Z,51.89
2022-09-12T00:16:27.778Z,51.95
2022-09-12T00:18:53.355Z,51.88
2022-09-12T00:21:18.939Z,51.89
2022-09-12T00:23:44.487Z,51.72
2022-09-12T00:26:10.375Z,51.75
2022-09-12T00:28:36.397Z,51.92
2022-09-12T00:31:04.052Z,51.88
2022-09-12T00:33:30.188Z,51.86
2022-09-12T00:35:55.729Z,51.93
2022-09-12T00:38:21.272Z,51.63
2022-09-12T00:40:46.923Z,51.85
2022-09-12T00:43:14.440Z,51.82
2022-09-12T00:45:41.719Z,51.83
2022-09-12T00:48:08.059Z,51.75
2022-09-12T00:50:33.596Z,51.77
2022-09-12T00:53:01.496Z,51.73
2022-09-12T00:55:28.020Z,51.88
2022-09-12T00:57:55.829Z,51.61
2022-09-12T01:00:22.139Z,51.87
2022-09-12T01:02:49.885Z,51.95
2022-09-12T01:05:15.489Z,51.87
2022-09-12T01:07:41.027Z,51.82
2022-09-12T01:10:07.225Z,51.83
2022-09-12T01:12:33.540Z,51.89
2022-09-12T01:14:59.141Z,51.81
2022-09-12T01:17:27.168Z,51.93
2022-09-12T01:19:59.388Z,51.83
2022-09-12T01:22:31.218Z,51.97
2022-09-12T01:25:07.680Z,51.82
2022-09-12T01:27:39.654Z,51.68
2022-09-12T01:30:16.445Z,51.83
2022-09-12T01:32:47.477Z,51.80
2022-09-12T01:35:31.368Z,51.82
2022-09-12T01:38:01.881Z,51.83
2022-09-12T01:40:30.870Z,51.96
2022-09-12T01:43:02.420Z,51.85
2022-09-12T01:45:29.597Z,51.88
2022-09-12T01:47:58.372Z,51.81
2022-09-12T01:50:24.581Z,51.83
2022-09-12T01:55:27.797Z,51.84
2022-09-12T01:57:54.324Z,51.81
2022-09-12T02:00:19.882Z,51.88
2022-09-12T02:02:48.262Z,51.85
2022-09-12T02:05:18.736Z,51.81
2022-09-12T02:07:44.851Z,51.76
2022-09-12T02:10:12.794Z,51.86
2022-09-12T02:12:41.467Z,51.83
2022-09-12T02:15:07.594Z,51.80
2022-09-12T02:17:34.653Z,51.92
2022-09-12T02:20:06.524Z,51.92
2022-09-12T02:22:32.148Z,51.80
2022-09-12T02:24:58.911Z,51.70
2022-09-12T02:27:27.408Z,51.89
2022-09-12T02:29:52.957Z,51.87
2022-09-12T02:32:24.444Z,51.91
2022-09-12T02:34:51.616Z,51.77
2022-09-12T02:37:22.776Z,51.83
2022-09-12T02:39:48.395Z,51.90
2022-09-12T02:42:13.969Z,51.85
2022-09-12T02:44:39.551Z,51.89
2022-09-12T02:47:09.285Z,51.88
2022-09-12T02:49:34.871Z,51.84
2022-09-12T02:52:00.416Z,51.69
2022-09-12T02:54:25.956Z,51.90
2022-09-12T02:56:51.492Z,51.77
2022-09-12T02:59:18.138Z,51.71
2022-09-12T03:02:03.628Z,51.85
2022-09-12T03:07:34.213Z,51.66
2022-09-12T03:10:02.842Z,51.85
2022-09-12T03:12:34.413Z,51.88
2022-09-12T03:15:07.033Z,51.83
2022-09-12T03:17:52.460Z,51.73
2022-09-12T03:23:02.601Z,51.83
2022-09-12T03:25:30.097Z,51.68
2022-09-12T03:27:58.056Z,51.83
2022-09-12T03:30:23.844Z,51.69
2022-09-12T03:32:50.374Z,51.90
2022-09-12T03:35:20.898Z,51.84
2022-09-12T03:37:48.873Z,51.82
2022-09-12T03:40:14.777Z,51.75
2022-09-12T03:42:40.530Z,51.90
2022-09-12T03:45:06.533Z,51.84
2022-09-12T03:47:32.081Z,51.71
2022-09-12T03:49:57.626Z,51.68
2022-09-12T03:52:23.195Z,51.81
2022-09-12T03:54:48.962Z,51.76
2022-09-12T03:57:14.503Z,51.76
2022-09-12T03:59:40.045Z,51.73
2022-09-12T04:02:05.603Z,51.82
2022-09-12T04:04:31.193Z,51.87
2022-09-12T04:06:56.731Z,51.84
2022-09-12T04:09:22.276Z,51.76
2022-09-12T04:11:47.825Z,51.63
2022-09-12T04:14:13.362Z,51.65
2022-09-12T04:16:38.937Z,51.84
2022-09-12T04:19:04.498Z,51.84
2022-09-12T04:21:30.193Z,51.69
2022-09-12T04:23:55.733Z,51.85
2022-09-12T04:26:21.608Z,51.89
2022-09-12T04:28:47.387Z,51.87
2022-09-12T04:31:14.875Z,51.89
2022-09-12T04:33:40.478Z,51.75
2022-09-12T04:36:06.811Z,51.83
2022-09-12T04:38:32.790Z,51.85
2022-09-12T04:40:58.337Z,51.51
2022-09-12T04:43:23.871Z,51.26
2022-09-12T04:45:49.456Z,51.37
2022-09-12T04:48:15.112Z,51.26
2022-09-12T04:50:40.660Z,51.23
2022-09-12T04:53:06.364Z,51.33
2022-09-12T04:55:33.132Z,51.26
2022-09-12T04:57:58.681Z,51.21
2022-09-12T05:00:24.215Z,51.29
2022-09-12T05:02:49.762Z,51.26
2022-09-12T05:05:16.659Z,51.20
2022-09-12T05:07:42.204Z,51.33
2022-09-12T05:10:08.201Z,51.30
2022-09-12T05:12:33.748Z,51.29
2022-09-12T05:14:59.292Z,51.27
2022-09-12T05:17:24.843Z,51.25
2022-09-12T05:19:50.380Z,50.37
2022-09-12T05:22:15.930Z,50.01
2022-09-12T05:24:45.204Z,49.93
2022-09-12T05:27:12.897Z,49.90
2022-09-12T05:29:38.443Z,49.84
2022-09-12T05:32:03.984Z,49.99
2022-09-12T05:34:29.533Z,50.17
2022-09-12T05:36:55.080Z,49.99
2022-09-12T05:39:20.608Z,50.13
2022-09-12T05:41:46.511Z,50.51
2022-09-12T05:44:13.261Z,50.30
2022-09-12T05:46:40.499Z,49.80
2022-09-12T05:49:08.044Z,50.74
2022-09-12T05:51:34.541Z,51.09
2022-09-12T05:54:00.444Z,50.68
2022-09-12T05:56:27.744Z,50.54
2022-09-12T05:58:55.193Z,50.83
2022-09-12T06:01:20.760Z,50.84
2022-09-12T06:03:47.546Z,50.87
2022-09-12T06:06:13.758Z,50.61
2022-09-12T06:08:40.332Z,50.62
2022-09-12T06:11:06.180Z,50.51
2022-09-12T06:13:32.684Z,50.48
2022-09-12T06:16:02.156Z,50.32
2022-09-12T06:18:27.700Z,50.39
2022-09-12T06:20:53.242Z,50.26
2022-09-12T06:23:18.787Z,50.48
2022-09-12T06:25:46.386Z,50.55
2022-09-12T06:28:11.931Z,50.46
2022-09-12T06:30:37.482Z,50.46
2022-09-12T06:33:03.043Z,50.82
2022-09-12T06:35:28.582Z,50.72
2022-09-12T06:37:54.567Z,50.52
2022-09-12T06:40:20.157Z,50.71
2022-09-12T06:42:45.722Z,50.46
2022-09-12T06:45:11.280Z,50.43
2022-09-12T06:47:36.841Z,50.38
2022-09-12T06:50:02.378Z,50.32
2022-09-12T06:52:28.407Z,50.53
2022-09-12T06:54:53.947Z,50.48
2022-09-12T06:57:19.501Z,50.55
2022-09-12T06:59:45.043Z,51.41
2022-09-12T07:02:11.609Z,51.39
2022-09-12T07:04:37.176Z,51.13
2022-09-12T07:07:02.711Z,51.04
2022-09-12T07:09:29.959Z,51.61
2022-09-12T07:11:55.622Z,51.26
2022-09-12T07:14:21.157Z,51.45
2022-09-12T07:16:46.733Z,51.72
2022-09-12T07:19:12.313Z,51.30
2022-09-12T07:21:38.915Z,50.89
2022-09-12T07:24:04.877Z,50.88
2022-09-12T07:26:30.446Z,50.97
2022-09-12T07:29:12.799Z,50.86
2022-09-12T07:31:42.019Z,51.10
2022-09-12T07:34:07.592Z,50.87
2022-09-12T07:36:33.482Z,51.02
2022-09-12T07:38:59.022Z,51.02
2022-09-12T07:41:25.686Z,51.02
2022-09-12T07:43:52.388Z,51.01
2022-09-12T07:46:17.960Z,51.00
2022-09-12T07:48:44.668Z,50.86
2022-09-12T07:51:10.414Z,51.09
2022-09-12T07:53:36.731Z,50.96
2022-09-12T07:56:02.734Z,51.08
2022-09-12T07:58:29.485Z,50.80
2022-09-12T08:01:00.798Z,51.13
2022-09-12T08:03:26.383Z,51.11
2022-09-12T08:05:51.923Z,51.15
2022-09-12T08:08:17.735Z,51.29
2022-09-12T08:10:43.281Z,51.26
2022-09-12T08:13:10.788Z,51.25
2022-09-12T08:15:36.532Z,51.39
2022-09-12T08:18:02.123Z,51.35
2022-09-12T08:20:28.470Z,51.30
2022-09-12T08:22:54.158Z,51.40
2022-09-12T08:25:19.700Z,51.26
2022-09-12T08:27:46.315Z,51.23
2022-09-12T08:30:12.236Z,51.24
2022-09-12T08:32:37.787Z,51.31
2022-09-12T08:35:03.432Z,51.50
2022-09-12T08:37:29.655Z,51.43
2022-09-12T08:39:55.814Z,51.40
2022-09-12T08:42:33.001Z,51.47
2022-09-12T08:45:01.919Z,51.66
2022-09-12T08:47:31.784Z,51.71
2022-09-12T08:50:17.272Z,51.69
2022-09-12T08:52:47.174Z,51.70
2022-09-12T08:55:21.315Z,51.63
2022-09-12T08:57:46.922Z,51.74
2022-09-12T09:00:13.004Z,51.67
2022-09-12T09:02:45.037Z,51.65
2022-09-12T09:05:13.543Z,51.56
2022-09-12T09:07:59.510Z,51.63
2022-09-12T09:10:30.931Z,51.72
2022-09-12T09:13:07.362Z,51.72
2022-09-12T09:15:35.586Z,51.74
2022-09-12T09:18:03.380Z,51.68
2022-09-12T09:20:32.507Z,51.78
2022-09-12T09:23:01.526Z,51.54
2022-09-12T09:25:43.804Z,51.74
2022-09-12T09:28:18.729Z,51.69
2022-09-12T09:30:44.367Z,51.62
2022-09-12T09:33:14.979Z,51.74
2022-09-12T09:35:44.335Z,51.92
2022-09-12T09:38:17.247Z,51.77
2022-09-12T09:41:00.735Z,51.69
2022-09-12T09:43:28.200Z,51.96
2022-09-12T09:45:54.151Z,51.96
2022-09-12T09:48:22.633Z,52.01
2022-09-12T09:50:48.583Z,52.19
2022-09-12T09:53:21.119Z,53.76
2022-09-12T09:55:46.663Z,53.73
2022-09-12T09:58:26.730Z,53.06
2022-09-12T10:00:56.590Z,52.85
2022-09-12T10:03:27.966Z,52.77
2022-09-12T10:05:54.219Z,52.34
2022-09-12T10:08:20.527Z,52.59
2022-09-12T10:13:40.711Z,52.68
2022-09-12T10:16:16.027Z,52.68
2022-09-12T10:18:41.959Z,52.76
2022-09-12T10:21:15.275Z,52.54
2022-09-12T10:23:40.814Z,52.59
2022-09-12T10:26:10.382Z,52.44
2022-09-12T10:28:36.946Z,52.44
2022-09-12T10:31:02.543Z,52.51
2022-09-12T10:33:28.132Z,52.58
2022-09-12T10:35:54.293Z,52.42
2022-09-12T10:38:23.845Z,52.75
2022-09-12T10:40:58.932Z,52.48
2022-09-12T10:43:27.195Z,52.50
2022-09-12T10:45:56.202Z,52.65
2022-09-12T10:48:30.798Z,52.59
2022-09-12T10:50:56.858Z,52.39
2022-09-12T10:53:23.275Z,52.43
2022-09-12T10:55:54.786Z,52.30
2022-09-12T10:58:28.310Z,51.79
2022-09-12T11:00:56.627Z,51.93
2022-09-12T11:03:24.014Z,52.21
2022-09-12T11:06:04.551Z,52.07
2022-09-12T11:08:49.971Z,52.54
2022-09-12T11:11:36.354Z,52.45
2022-09-12T11:14:08.451Z,52.46
2022-09-12T11:16:38.837Z,52.19
2022-09-12T11:19:18.355Z,51.87
2022-09-12T11:24:40.047Z,51.72
2022-09-12T11:27:12.182Z,51.60
2022-09-12T11:29:57.616Z,51.26
2022-09-12T11:32:41.721Z,51.05
2022-09-12T11:35:17.454Z,51.14
2022-09-12T11:37:47.406Z,51.08
2022-09-12T11:40:19.956Z,51.14
2022-09-12T11:42:45.544Z,51.00
2022-09-12T11:45:13.127Z,50.98
2022-09-12T11:47:38.672Z,51.30
2022-09-12T11:50:05.159Z,51.37
2022-09-12T11:52:33.216Z,51.28
2022-09-12T11:55:03.090Z,51.46
2022-09-12T12:00:26.948Z,51.34
2022-09-12T12:03:12.807Z,51.42
2022-09-12T12:05:54.977Z,51.18
2022-09-12T12:08:22.376Z,51.04
2022-09-12T12:10:51.316Z,51.14
2022-09-12T12:13:38.313Z,51.24
2022-09-12T12:16:06.210Z,51.22
2022-09-12T12:18:32.298Z,51.14
2022-09-12T12:21:15.399Z,50.92
2022-09-12T12:23:40.940Z,50.91
2022-09-12T12:26:08.370Z,50.72
2022-09-12T12:31:17.365Z,51.07
2022-09-12T12:36:33.132Z,51.26
2022-09-12T12:38:59.178Z,51.01
2022-09-12T12:41:28.011Z,50.91
2022-09-12T12:43:55.444Z,51.17
2022-09-12T12:46:21.939Z,51.15
2022-09-12T12:49:07.435Z,51.18
2022-09-12T12:51:35.246Z,50.89
2022-09-12T12:54:01.624Z,50.73
2022-09-12T12:56:28.378Z,50.99
2022-09-12T12:58:57.654Z,50.84
2022-09-12T13:01:23.269Z,50.64
2022-09-12T13:03:58.304Z,50.79
2022-09-12T13:06:33.582Z,50.80
2022-09-12T13:09:00.149Z,50.93
2022-09-12T13:11:40.550Z,50.76
2022-09-12T13:14:08.672Z,50.82
2022-09-12T13:16:35.628Z,51.16
2022-09-12T13:19:05.202Z,51.03
2022-09-12T13:21:30.749Z,50.59
2022-09-12T13:24:01.703Z,50.61
2022-09-12T13:26:27.419Z,50.53
2022-09-12T13:29:12.894Z,50.78
2022-09-12T13:31:38.477Z,50.97
2022-09-12T13:34:04.534Z,50.84
2022-09-12T13:36:50.008Z,50.57
2022-09-12T13:39:35.434Z,50.96
2022-09-12T13:42:20.947Z,50.76
2022-09-12T13:44:48.398Z,50.55
2022-09-12T13:47:15.130Z,50.54
2022-09-12T13:49:40.666Z,50.45
2022-09-12T13:52:07.651Z,50.18
2022-09-12T13:54:37.034Z,50.11
2022-09-12T13:57:03.235Z,50.45
2022-09-12T13:59:36.686Z,50.25
2022-09-12T14:02:02.249Z,50.09
2022-09-12T14:04:48.467Z,50.29
2022-09-12T14:07:14.739Z,50.31
2022-09-12T14:09:41.532Z,50.22
2022-09-12T14:12:19.791Z,50.00
2022-09-12T14:14:46.187Z,49.89
2022-09-12T14:17:16.237Z,50.00
2022-09-12T14:19:42.599Z,49.89
2022-09-12T14:22:09.064Z,49.93
2022-09-12T14:24:34.599Z,50.56
2022-09-12T14:27:00.334Z,50.57
2022-09-12T14:29:26.197Z,50.77
2022-09-12T14:31:59.708Z,49.48
2022-09-12T14:34:25.522Z,49.62
2022-09-12T14:36:51.480Z,49.24
2022-09-12T14:39:18.802Z,49.62
2022-09-12T14:41:45.382Z,50.15
2022-09-12T14:44:25.906Z,50.62
2022-09-12T14:46:51.574Z,49.74
2022-09-12T14:49:35.414Z,49.70
2022-09-12T14:52:01.678Z,49.34
2022-09-12T14:57:05.030Z,49.78
2022-09-12T15:02:21.160Z,49.84
2022-09-12T15:04:54.754Z,50.70
2022-09-12T15:07:36.146Z,49.81
2022-09-12T15:10:09.330Z,50.38
2022-09-12T15:12:34.877Z,49.66
2022-09-12T15:15:04.008Z,49.77
2022-09-12T15:17:29.550Z,49.60
2022-09-12T15:19:55.089Z,50.08
2022-09-12T15:22:20.864Z,50.83
2022-09-12T15:24:46.403Z,50.48
2022-09-12T15:27:11.941Z,50.81
2022-09-12T15:29:37.846Z,50.07
2022-09-12T15:32:03.671Z,50.21
2022-09-12T15:34:29.212Z,50.22
2022-09-12T15:36:54.763Z,50.14
2022-09-12T15:39:20.312Z,50.16
2022-09-12T15:41:46.555Z,50.24
2022-09-12T15:44:12.356Z,50.37
2022-09-12T15:46:37.967Z,50.22
2022-09-12T15:49:03.551Z,50.46
2022-09-12T15:51:29.103Z,51.03
2022-09-12T15:53:54.650Z,50.92
2022-09-12T15:56:20.451Z,51.19
2022-09-12T15:58:58.152Z,51.09
2022-09-12T16:01:24.278Z,51.04
2022-09-12T16:03:49.856Z,51.14
2022-09-12T16:06:15.396Z,52.91
2022-09-12T16:08:40.952Z,52.07
2022-09-12T16:11:07.657Z,51.39
2022-09-12T16:13:33.208Z,52.32
2022-09-12T16:16:00.214Z,53.99
2022-09-12T16:18:26.147Z,52.02
2022-09-12T16:20:52.346Z,53.53
2022-09-12T16:23:17.893Z,52.33
2022-09-12T16:25:43.477Z,53.28
2022-09-12T16:28:09.142Z,53.34
2022-09-12T16:30:34.863Z,52.68
2022-09-12T16:33:00.426Z,52.40
2022-09-12T16:35:26.190Z,52.18
2022-09-12T16:37:51.930Z,52.43
2022-09-12T16:40:18.572Z,52.57
2022-09-12T16:42:44.503Z,52.43
2022-09-12T16:45:10.174Z,52.51
2022-09-12T16:47:35.715Z,51.85
2022-09-12T16:50:01.249Z,52.72
2022-09-12T16:52:27.428Z,52.60
2022-09-12T16:54:52.963Z,52.63
2022-09-12T16:57:18.505Z,52.85
2022-09-12T16:59:44.042Z,52.87
2022-09-12T17:02:11.466Z,52.79
2022-09-12T17:04:37.047Z,52.74
2022-09-12T17:07:02.596Z,52.71
2022-09-12T17:09:28.546Z,52.70
2022-09-12T17:11:54.535Z,52.67
2022-09-12T17:14:20.165Z,52.57
2022-09-12T17:16:50.819Z,52.64
2022-09-12T17:19:18.486Z,52.61
2022-09-12T17:21:46.246Z,52.57
2022-09-12T17:24:11.817Z,52.60
2022-09-12T17:26:37.386Z,52.48
2022-09-12T17:29:03.099Z,52.63
2022-09-12T17:31:28.693Z,52.54
2022-09-12T17:33:56.114Z,52.40
2022-09-12T17:36:22.105Z,52.39
2022-09-12T17:38:47.642Z,52.48
2022-09-12T17:41:15.202Z,52.41
2022-09-12T17:43:40.950Z,52.43
2022-09-12T17:46:07.025Z,52.32
2022-09-12T17:48:32.972Z,52.29
2022-09-12T17:50:58.574Z,52.33
2022-09-12T17:53:24.599Z,52.41
2022-09-12T17:55:54.165Z,52.43
2022-09-12T17:58:19.935Z,52.34
2022-09-12T18:01:05.382Z,52.28
2022-09-12T18:03:30.932Z,52.14
2022-09-12T18:05:56.471Z,52.16
2022-09-12T18:08:22.350Z,52.36
2022-09-12T18:10:48.060Z,52.39
2022-09-12T18:13:13.690Z,52.27
2022-09-12T18:15:39.284Z,52.25
2022-09-12T18:18:04.862Z,52.28
2022-09-12T18:20:30.647Z,52.25
2022-09-12T18:22:56.198Z,52.22
2022-09-12T18:25:21.739Z,52.07
2022-09-12T18:27:47.291Z,52.26
2022-09-12T18:30:21.973Z,52.15
2022-09-12T18:32:47.808Z,52.31
2022-09-12T18:35:13.422Z,52.10
2022-09-12T18:37:40.242Z,52.02
2022-09-12T18:40:05.864Z,52.06
2022-09-12T18:42:31.819Z,52.24
2022-09-12T18:44:57.395Z,52.15
2022-09-12T18:47:22.941Z,52.06
2022-09-12T18:49:48.579Z,52.18
2022-09-12T18:52:14.475Z,52.17
2022-09-12T18:54:40.020Z,52.26
2022-09-12T18:57:05.591Z,52.11
2022-09-12T18:59:31.130Z,52.05
2022-09-12T19:01:57.226Z,52.17
2022-09-12T19:04:22.933Z,52.08
2022-09-12T19:06:48.495Z,52.04
2022-09-12T19:09:15.441Z,52.10
2022-09-12T19:11:47.779Z,52.00
2022-09-12T19:14:13.717Z,52.09
2022-09-12T19:16:39.265Z,52.23
2022-09-12T19:19:05.322Z,52.15
2022-09-12T19:21:31.021Z,52.19
2022-09-12T19:23:57.344Z,52.08
2022-09-12T19:26:22.883Z,51.92
2022-09-12T19:28:48.639Z,52.04
2022-09-12T19:31:15.132Z,52.08
2022-09-12T19:33:41.462Z,51.83
2022-09-12T19:36:17.566Z,51.94
2022-09-12T19:38:53.053Z,52.01
2022-09-12T19:41:19.483Z,52.08
2022-09-12T19:43:45.089Z,52.06
2022-09-12T19:46:15.011Z,52.06
2022-09-12T19:48:40.577Z,51.78
2022-09-12T19:51:06.118Z,51.96
2022-09-12T19:53:31.830Z,52.14
2022-09-12T19:55:57.849Z,51.97
2022-09-12T19:58:23.387Z,52.09
2022-09-12T20:00:48.931Z,52.01
2022-09-12T20:03:14.471Z,51.88
2022-09-12T20:05:42.807Z,52.02
2022-09-12T20:08:09.010Z,51.95
2022-09-12T20:10:34.546Z,51.91
2022-09-12T20:13:00.093Z,52.03
2022-09-12T20:15:25.688Z,51.81
2022-09-12T20:17:53.099Z,51.90
2022-09-12T20:20:18.637Z,51.95
2022-09-12T20:22:44.175Z,51.72
2022-09-12T20:25:09.714Z,51.94
2022-09-12T20:27:35.530Z,51.97
2022-09-12T20:30:01.059Z,51.96
2022-09-12T20:32:28.094Z,51.86
2022-09-12T20:34:55.263Z,51.96
2022-09-12T20:37:20.810Z,51.88
2022-09-12T20:39:50.650Z,51.85
2022-09-12T20:42:16.464Z,51.85
2022-09-12T20:44:42.021Z,51.85
2022-09-12T20:47:07.573Z,51.93
2022-09-12T20:49:33.118Z,51.92
2022-09-12T20:51:59.091Z,51.94
2022-09-12T20:54:24.629Z,51.95
2022-09-12T20:56:50.174Z,51.89
2022-09-12T20:59:15.707Z,51.73
2022-09-12T21:01:41.326Z,51.85
2022-09-12T21:04:06.938Z,51.88
2022-09-12T21:06:32.471Z,51.92
2022-09-12T21:08:58.971Z,51.92
2022-09-12T21:11:24.590Z,51.89
2022-09-12T21:13:50.853Z,51.87
2022-09-12T21:16:17.445Z,51.90
2022-09-12T21:18:43.194Z,51.84
2022-09-12T21:21:09.275Z,51.83
2022-09-12T21:23:34.823Z,51.88
2022-09-12T21:26:00.646Z,51.85
2022-09-12T21:28:26.211Z,51.92
2022-09-12T21:30:51.847Z,51.84
2022-09-12T21:33:17.964Z,51.85
2022-09-12T21:35:43.621Z,51.78
2022-09-12T21:38:09.332Z,51.95
2022-09-12T21:40:34.891Z,51.86
2022-09-12T21:43:00.434Z,51.86
2022-09-12T21:45:26.025Z,51.86
2022-09-12T21:47:51.572Z,51.85
2022-09-12T21:50:18.022Z,51.90
2022-09-12T21:52:43.569Z,51.90
2022-09-12T21:55:09.226Z,51.90
2022-09-12T21:57:34.766Z,51.70
2022-09-12T22:00:00.342Z,51.88
2022-09-12T22:02:27.518Z,51.95
2022-09-12T22:04:53.395Z,51.78
2022-09-12T22:07:18.939Z,51.81
2022-09-12T22:09:44.551Z,51.68
2022-09-12T22:12:10.093Z,51.86
2022-09-12T22:14:35.831Z,51.82
2022-09-12T22:17:01.419Z,51.83
2022-09-12T22:19:26.954Z,51.78
2022-09-12T22:22:12.399Z,51.89
2022-09-12T22:24:38.002Z,51.83
2022-09-12T22:27:04.300Z,51.83
2022-09-12T22:29:29.854Z,51.80
2022-09-12T22:31:55.391Z,51.85
2022-09-12T22:34:20.943Z,51.88
2022-09-12T22:36:46.918Z,51.70
2022-09-12T22:39:12.496Z,51.91
2022-09-12T22:41:38.032Z,51.79
2022-09-12T22:44:03.570Z,51.80
2022-09-12T22:46:29.714Z,51.65
2022-09-12T22:48:55.279Z,51.85
2022-09-12T22:51:20.823Z,51.92
2022-09-12T22:53:46.360Z,51.80
2022-09-12T22:56:12.011Z,51.79
2022-09-12T22:58:37.553Z,51.88
2022-09-12T23:01:05.333Z,51.82
2022-09-12T23:03:31.215Z,51.88
2022-09-12T23:05:56.870Z,51.92
2022-09-12T23:08:22.414Z,51.84
2022-09-12T23:10:47.957Z,51.82
2022-09-12T23:13:13.506Z,51.82
2022-09-12T23:15:39.088Z,51.72
2022-09-12T23:18:05.248Z,51.85
2022-09-12T23:20:30.879Z,51.77
2022-09-12T23:22:56.422Z,51.72
2022-09-12T23:25:22.788Z,51.80
2022-09-12T23:27:48.704Z,51.82
2022-09-12T23:30:16.970Z,51.84
2022-09-12T23:32:42.524Z,51.58
2022-09-12T23:35:08.098Z,51.83
2022-09-12T23:37:33.647Z,51.86
2022-09-12T23:39:59.225Z,51.80
2022-09-12T23:42:24.811Z,51.71
2022-09-12T23:44:50.344Z,51.78
2022-09-12T23:47:16.466Z,51.85
2022-09-12T23:49:44.563Z,51.62
2022-09-12T23:52:10.128Z,51.87
2022-09-12T23:54:36.152Z,51.68
2022-09-12T23:57:01.703Z,51.75
2022-09-12T23:59:27.246Z,51.68
